Time;durP1;ratioP1;P1;durP2;ratioP2;P2;SDS_P1;SDS_P2;PMS_P1;PMS_P2;Temp;Humidity;BMP_temperature;BMP_pressure;BME280_temperature;BME280_humidity;BME280_pressure;Samples;Min_cycle;Max_cycle;Signal;HPM_P1;HPM_P2
2021/11/17 02:25:55;;;;;;;;;46.80;38.20;;;;;12.14;67.04;101570.13;2084859;28;46445;-63
2021/11/17 02:27:05;;;;;;;;;48.80;40.60;;;;;12.12;66.99;101564.81;2084475;28;45319;-63
2021/11/17 02:28:21;;;;;;;;;50.60;39.60;;;;;12.12;67.14;101566.59;2091923;28;48219;-63
2021/11/17 02:29:52;;;;;;;;;49.00;40.60;;;;;12.11;67.11;101568.41;2091690;28;47503;-63
2021/11/17 02:31:20;;;;;;;;;55.60;41.60;;;;;12.11;67.11;101562.19;2099448;28;45967;-63
2021/11/17 02:32:33;;;;;;;;;50.00;40.40;;;;;12.09;67.02;101564.88;2095948;28;47461;-63
2021/11/17 02:34:01;;;;;;;;;45.80;38.60;;;;;12.10;67.23;101565.75;2091784;28;47357;-63
2021/11/17 02:35:30;;;;;;;;;48.40;40.00;;;;;12.09;67.13;101551.56;2091763;28;47661;-63
2021/11/17 02:36:49;;;;;;;;;45.40;38.00;;;;;12.06;67.09;101552.47;2091939;28;46255;-63
2021/11/17 02:38:24;;;;;;;;;47.20;39.40;;;;;12.06;67.22;101551.59;2092022;28;47357;-64
2021/11/17 02:39:46;;;;;;;;;51.60;41.60;;;;;12.06;67.28;101557.78;2091923;28;47337;-64
2021/11/17 02:41:12;;;;;;;;;49.40;41.40;;;;;12.07;67.33;101556.03;2091862;28;47078;-64
2021/11/17 02:42:19;;;;;;;;;52.60;41.60;;;;;12.07;67.10;101559.59;2091686;28;47007;-63
2021/11/17 02:43:25;;;;;;;;;48.00;39.40;;;;;12.07;67.19;101546.28;2091594;28;46302;-63
2021/11/17 02:44:51;;;;;;;;;47.20;39.20;;;;;12.09;67.20;101543.59;2085028;28;47831;-63
2021/11/17 02:46:16;;;;;;;;;49.40;41.80;;;;;12.08;67.15;101531.19;2093162;28;48062;-63
2021/11/17 02:47:23;;;;;;;;;45.80;38.00;;;;;12.07;67.23;101530.31;2087877;28;46305;-63
2021/11/17 02:48:30;;;;;;;;;52.20;41.40;;;;;12.05;67.31;101536.53;2088645;28;47301;-63
2021/11/17 02:49:46;;;;;;;;;48.80;39.20;;;;;12.03;67.28;101536.56;2099718;27;48139;-63
2021/11/17 02:51:00;;;;;;;;;48.60;41.40;;;;;12.02;67.19;101539.25;2097642;28;47129;-63
2021/11/17 02:52:15;;;;;;;;;50.60;40.60;;;;;12.01;67.31;101545.47;2092085;27;48229;-63
2021/11/17 02:53:34;;;;;;;;;54.00;42.20;;;;;11.98;67.30;101543.75;2090727;28;48577;-63
2021/11/17 02:54:50;;;;;;;;;48.80;38.20;;;;;11.97;67.28;101549.97;2102666;27;47789;-64
2021/11/17 02:55:56;;;;;;;;;47.00;40.00;;;;;11.97;67.36;101557.06;2098404;27;45435;-63
2021/11/17 02:57:42;;;;;;;;;51.80;41.80;;;;;11.96;67.37;101563.28;2091201;28;47184;-63
2021/11/17 02:59:07;;;;;;;;;52.60;40.80;;;;;11.96;67.67;101560.63;2082251;28;47250;-64
2021/11/17 03:00:16;;;;;;;;;54.20;41.80;;;;;11.96;67.55;101565.94;2099312;28;47311;-64
2021/11/17 03:01:41;;;;;;;;;51.40;38.60;;;;;11.96;67.51;101561.50;2097312;27;47199;-63
2021/11/17 03:03:03;;;;;;;;;48.40;38.60;;;;;11.96;67.63;101563.28;2085542;28;46388;-63
2021/11/17 03:04:31;;;;;;;;;51.80;39.80;;;;;11.95;67.66;101566.84;2090836;28;46151;-63
2021/11/17 03:05:41;;;;;;;;;44.40;38.60;;;;;11.95;67.52;101569.53;2090998;28;47179;-63
2021/11/17 03:07:04;;;;;;;;;50.60;40.40;;;;;11.94;67.63;101565.97;2098868;27;47480;-63
2021/11/17 03:08:20;;;;;;;;;46.00;38.00;;;;;11.94;67.67;101565.97;2098472;28;46207;-63
2021/11/17 03:09:26;;;;;;;;;47.00;39.00;;;;;11.94;67.55;101567.72;2095338;27;48422;-63
2021/11/17 03:11:25;;;;;;;;;51.00;42.40;;;;;11.93;67.87;101564.19;2094270;27;48388;-63
2021/11/17 03:12:39;;;;;;;;;47.20;38.00;;;;;11.93;67.69;101572.16;2076676;28;48551;-64
2021/11/17 03:13:39;;;;;;;;;49.60;40.80;;;;;11.93;67.70;101565.97;2076878;28;48220;-64
2021/11/17 03:15:04;;;;;;;;;47.50;38.25;;;;;11.93;67.77;101580.16;2086323;27;47173;-63
2021/11/17 03:16:05;;;;;;;;;48.40;40.40;;;;;11.93;67.68;101579.28;2094381;28;48131;-66
2021/11/17 03:17:42;;;;;;;;;45.75;39.25;;;;;11.93;67.69;101581.94;2102324;27;47181;-63
2021/11/17 03:18:54;;;;;;;;;52.40;40.80;;;;;11.93;67.79;101582.81;2093258;28;47474;-63
2021/11/17 03:19:55;;;;;;;;;52.80;40.40;;;;;11.94;67.78;101583.69;2095798;28;48042;-63
2021/11/17 03:21:16;;;;;;;;;48.00;39.00;;;;;11.94;67.75;101589.91;2099976;27;47503;-63
2021/11/17 03:22:27;;;;;;;;;54.40;43.20;;;;;11.96;67.81;101590.78;2096343;28;47603;-63
2021/11/17 03:23:51;;;;;;;;;52.20;41.40;;;;;11.98;67.94;101593.41;2095440;28;48209;-63
2021/11/17 03:24:58;;;;;;;;;53.20;41.00;;;;;11.99;67.79;101605.81;2095050;28;47489;-63
2021/11/17 03:26:04;;;;;;;;;47.40;38.60;;;;;11.99;67.67;101608.47;2091496;28;47451;-64
2021/11/17 03:27:30;;;;;;;;;47.60;38.20;;;;;12.00;67.71;101608.44;2097252;28;47378;-63
2021/11/17 03:28:39;;;;;;;;;49.40;39.60;;;;;12.01;67.84;101609.31;2095858;28;47393;-63
2021/11/17 03:30:00;;;;;;;;;49.80;41.60;;;;;12.02;67.70;101613.75;2095622;28;47955;-63
2021/11/17 03:31:16;;;;;;;;;49.80;40.20;;;;;12.02;67.81;101611.06;2096584;27;47401;-63
2021/11/17 03:32:31;;;;;;;;;45.80;39.40;;;;;12.02;67.74;101606.63;2099521;28;48557;-63
2021/11/17 03:33:47;;;;;;;;;47.40;39.80;;;;;12.04;67.81;101606.63;2094916;28;47450;-63
2021/11/17 03:34:54;;;;;;;;;57.40;42.60;;;;;12.04;67.85;101611.94;2087766;28;48616;-63
2021/11/17 03:36:13;;;;;;;;;49.20;41.20;;;;;12.03;67.67;101619.03;2096428;27;47228;-63
2021/11/17 03:37:27;;;;;;;;;46.60;39.40;;;;;12.04;67.53;101627.91;2099332;28;47839;-63
2021/11/17 03:38:36;;;;;;;;;44.60;37.80;;;;;12.05;67.77;101632.31;2091426;28;47326;-64
2021/11/17 03:39:43;;;;;;;;;47.80;39.40;;;;;12.04;67.50;101626.13;2094619;28;48143;-63
2021/11/17 03:41:11;;;;;;;;;50.40;42.00;;;;;12.04;67.75;101623.44;2096714;27;47182;-64
2021/11/17 03:42:18;;;;;;;;;53.00;42.20;;;;;12.05;67.78;101625.22;2098271;27;45693;-63
2021/11/17 03:43:39;;;;;;;;;48.00;39.60;;;;;12.06;67.87;101631.41;2098849;28;45291;-63
2021/11/17 03:45:07;;;;;;;;;48.80;38.20;;;;;12.06;67.72;101621.66;2093567;28;46165;-63
2021/11/17 03:46:38;;;;;;;;;43.00;36.20;;;;;12.05;67.59;101619.00;2096682;28;48419;-65
2021/11/17 03:47:44;;;;;;;;;48.00;39.20;;;;;12.05;67.75;101619.00;2088942;28;46412;-63
2021/11/17 03:49:10;;;;;;;;;50.40;38.20;;;;;12.06;67.70;101621.66;2096730;28;47841;-63
2021/11/17 03:50:33;;;;;;;;;50.40;42.20;;;;;12.07;67.82;101620.78;2099340;28;46228;-63
2021/11/17 03:52:02;;;;;;;;;46.00;38.60;;;;;12.10;67.74;101626.94;2081906;28;46207;-64
2021/11/17 03:53:06;;;;;;;;;47.80;38.20;;;;;12.10;67.78;101630.50;2099159;28;46409;-63
2021/11/17 03:54:25;;;;;;;;;47.20;39.20;;;;;12.10;67.67;101632.28;2096144;27;48188;-64
2021/11/17 03:55:50;;;;;;;;;46.00;37.40;;;;;12.10;67.84;101638.47;2088028;28;45307;-63
2021/11/17 03:57:06;;;;;;;;;51.00;41.20;;;;;12.12;67.66;101635.78;2092253;28;47489;-63
2021/11/17 03:58:26;;;;;;;;;51.60;40.80;;;;;12.12;67.64;101639.31;2095882;28;47048;-63
2021/11/17 03:59:48;;;;;;;;;47.80;38.00;;;;;12.13;67.72;101643.75;2092662;28;47526;-63
2021/11/17 04:01:07;;;;;;;;;51.60;39.60;;;;;12.12;67.75;101636.66;2090658;28;45519;-63
2021/11/17 04:02:36;;;;;;;;;45.40;38.20;;;;;12.14;67.72;101631.31;2090766;28;47727;-63
2021/11/17 04:03:48;;;;;;;;;48.20;37.20;;;;;12.15;67.68;101638.41;2093075;27;47028;-63
2021/11/17 04:05:20;;;;;;;;;40.40;35.40;;;;;12.15;67.62;101631.28;2091112;27;48315;-63
2021/11/17 04:06:46;;;;;;;;;43.40;37.00;;;;;12.16;67.71;101626.84;2087044;28;47391;-63
2021/11/17 04:08:05;;;;;;;;;46.40;39.40;;;;;12.17;67.82;101634.81;2091160;28;47515;-63
2021/11/17 04:09:45;;;;;;;;;34.60;31.40;;;;;12.20;67.77;101633.91;2087245;28;48170;-63
2021/11/17 04:11:00;;;;;;;;;51.20;41.40;;;;;12.20;67.78;101632.13;2086125;28;47883;-63
2021/11/17 04:12:19;;;;;;;;;46.20;38.20;;;;;12.22;67.71;101637.44;2098675;28;48357;-63
2021/11/17 04:13:28;;;;;;;;;49.60;38.80;;;;;12.22;67.77;101646.28;2099333;27;48748;-63
2021/11/17 04:15:06;;;;;;;;;53.20;41.60;;;;;12.22;67.73;101635.66;2096328;28;47475;-63
2021/11/17 04:16:25;;;;;;;;;44.40;37.20;;;;;12.24;67.66;101640.94;2094897;28;48317;-63
2021/11/17 04:17:35;;;;;;;;;41.20;34.60;;;;;12.24;67.65;101649.81;2091856;28;48446;-63
2021/11/17 04:18:42;;;;;;;;;42.80;36.60;;;;;12.25;67.66;101642.69;2086216;28;45479;-63
2021/11/17 04:19:58;;;;;;;;;47.60;39.60;;;;;12.27;67.57;101651.53;2088597;28;47259;-63
2021/11/17 04:20:58;;;;;;;;;45.20;38.20;;;;;12.28;67.55;101653.28;2091550;28;48344;-63
2021/11/17 04:22:17;;;;;;;;;45.50;36.75;;;;;12.29;67.61;101647.06;2089362;28;47346;-63
2021/11/17 04:23:23;;;;;;;;;48.60;39.00;;;;;12.29;67.69;101657.72;2090844;28;47593;-63
2021/11/17 04:24:56;;;;;;;;;47.80;37.80;;;;;12.29;67.40;101660.38;2093966;28;48060;-63
2021/11/17 04:26:40;;;;;;;;;47.80;39.80;;;;;12.30;67.33;101662.13;2058876;28;47490;-64
2021/11/17 04:27:49;;;;;;;;;43.60;38.20;;;;;12.31;67.58;101669.22;2092709;28;45313;-63
2021/11/17 04:29:05;;;;;;;;;41.40;34.00;;;;;12.30;67.52;101665.69;2098041;28;48506;-63
2021/11/17 04:30:20;;;;;;;;;44.40;37.00;;;;;12.31;67.42;101664.78;2084431;28;48161;-63
2021/11/17 04:31:33;;;;;;;;;42.80;38.20;;;;;12.32;67.58;101671.88;2084063;28;45630;-63
2021/11/17 04:33:02;;;;;;;;;42.00;35.60;;;;;12.31;67.50;101667.44;2084186;28;48236;-63
2021/11/17 04:34:08;;;;;;;;;50.60;40.20;;;;;12.33;67.45;101670.09;2084427;28;47509;-63
2021/11/17 04:35:28;;;;;;;;;43.80;35.20;;;;;12.34;67.56;101670.06;2083915;28;47300;-64
2021/11/17 04:36:34;;;;;;;;;47.60;36.20;;;;;12.35;67.54;101668.28;2090730;28;47324;-64
2021/11/17 04:38:03;;;;;;;;;41.00;35.60;;;;;12.35;67.35;101665.63;2100144;28;46229;-63
2021/11/17 04:39:16;;;;;;;;;40.00;37.00;;;;;12.36;67.38;101670.06;2094796;27;46845;-63
2021/11/17 04:40:25;;;;;;;;;45.40;37.20;;;;;12.36;67.48;101662.06;2100443;27;48155;-63
2021/11/17 04:41:35;;;;;;;;;44.00;37.40;;;;;12.36;67.65;101672.72;2098938;28;48353;-63
2021/11/17 04:42:48;;;;;;;;;50.00;39.80;;;;;12.37;67.45;101680.69;2092619;27;48367;-63
2021/11/17 04:44:00;;;;;;;;;44.60;36.00;;;;;12.38;67.52;101676.22;2091355;28;47401;-63
2021/11/17 04:45:15;;;;;;;;;41.60;35.20;;;;;12.38;67.52;101679.78;2092213;28;47925;-63
2021/11/17 04:46:31;;;;;;;;;42.40;36.20;;;;;12.39;67.59;101680.66;2092359;28;47562;-66
2021/11/17 04:47:57;;;;;;;;;41.40;36.00;;;;;12.40;67.58;101678.88;2092264;28;47260;-63
2021/11/17 04:49:04;;;;;;;;;41.60;34.00;;;;;12.40;67.72;101679.75;2100244;28;47406;-63
2021/11/17 04:50:14;;;;;;;;;43.60;38.00;;;;;12.41;67.77;101672.63;2095753;28;48269;-64
2021/11/17 04:51:21;;;;;;;;;42.40;34.40;;;;;12.42;67.66;101677.06;2085657;28;47519;-63
2021/11/17 04:52:27;;;;;;;;;40.60;34.40;;;;;12.43;67.66;101673.50;2083778;28;46657;-63
2021/11/17 04:54:00;;;;;;;;;38.80;35.80;;;;;12.43;67.79;101676.16;2095927;28;47520;-63
2021/11/17 04:55:21;;;;;;;;;38.20;32.20;;;;;12.42;67.75;101675.28;2092204;28;45435;-64
2021/11/17 04:56:31;;;;;;;;;30.80;29.40;;;;;12.42;67.76;101674.41;2086788;28;48596;-63
2021/11/17 04:58:00;;;;;;;;;36.60;31.00;;;;;12.41;67.91;101670.84;2092655;28;46635;-63
2021/11/17 04:59:19;;;;;;;;;37.00;33.60;;;;;12.42;67.76;101671.75;2092318;28;47709;-63
2021/11/17 05:00:47;;;;;;;;;41.20;34.00;;;;;12.41;68.03;101672.63;2092366;28;45564;-63
2021/11/17 05:02:38;;;;;;;;;38.00;34.20;;;;;12.40;68.12;101677.09;2084132;28;47339;-63
2021/11/17 05:03:57;;;;;;;;;40.00;34.20;;;;;12.40;67.94;101676.22;2089923;28;48524;-64
2021/11/17 05:05:18;;;;;;;;;45.20;35.80;;;;;12.40;68.40;101669.09;2086339;28;47640;-63
2021/11/17 05:06:30;;;;;;;;;39.40;33.40;;;;;12.40;68.16;101666.44;2100334;27;48788;-64
2021/11/17 05:07:40;;;;;;;;;42.40;36.00;;;;;12.40;68.33;101673.53;2097206;28;47637;-63
2021/11/17 05:08:49;;;;;;;;;39.60;36.80;;;;;12.40;68.42;101662.91;2091607;28;47512;-64
2021/11/17 05:09:50;;;;;;;;;36.80;34.00;;;;;12.39;68.28;101664.69;2090894;28;47503;-63
2021/11/17 05:11:38;;;;;;;;;37.50;34.25;;;;;12.40;68.44;101663.78;2084028;28;46949;-63
2021/11/17 05:12:48;;;;;;;;;44.20;37.60;;;;;12.41;68.24;101670.84;2069275;28;45153;-63
2021/11/17 05:13:54;;;;;;;;;39.20;35.60;;;;;12.40;68.43;101665.56;2075120;28;48207;-63
2021/11/17 05:15:25;;;;;;;;;40.20;36.20;;;;;12.40;68.47;101669.09;2074556;28;47531;-63
2021/11/17 05:16:41;;;;;;;;;41.00;34.60;;;;;12.40;68.53;101674.44;2074362;28;47367;-63
2021/11/17 05:17:50;;;;;;;;;36.20;32.20;;;;;12.42;68.44;101677.06;2066430;28;47538;-63
2021/11/17 05:19:29;;;;;;;;;35.20;33.20;;;;;12.41;68.64;101672.63;2091423;28;47070;-63
2021/11/17 05:20:41;;;;;;;;;41.80;33.60;;;;;12.42;68.76;101674.41;2092254;28;48007;-63
2021/11/17 05:21:51;;;;;;;;;41.20;35.60;;;;;12.43;68.84;101673.50;2086492;28;46532;-63
2021/11/17 05:22:51;;;;;;;;;38.60;34.60;;;;;12.42;68.84;101669.94;2091559;28;47929;-63
2021/11/17 05:24:14;;;;;;;;;38.75;33.75;;;;;12.43;68.99;101671.72;2091741;28;46050;-63
2021/11/17 05:25:37;;;;;;;;;41.40;34.80;;;;;12.43;68.85;101669.03;2091993;28;46591;-63
2021/11/17 05:26:44;;;;;;;;;29.60;29.40;;;;;12.43;68.93;101662.84;2091906;28;48100;-63
2021/11/17 05:27:47;;;;;;;;;36.20;33.20;;;;;12.44;68.78;101662.81;2091755;28;46953;-63
2021/11/17 05:29:03;;;;;;;;;33.00;31.80;;;;;12.43;68.79;101669.03;2092231;27;47633;-63
2021/11/17 05:30:23;;;;;;;;;33.80;31.00;;;;;12.44;69.00;101661.94;2099964;27;47974;-63
2021/11/17 05:31:56;;;;;;;;;33.40;30.20;;;;;12.45;68.97;101663.69;2088498;28;47435;-63
2021/11/17 05:33:08;;;;;;;;;32.20;30.60;;;;;12.45;69.14;101669.03;2073154;28;47177;-64
2021/11/17 05:34:17;;;;;;;;;32.40;29.80;;;;;12.45;69.03;101663.69;2087184;28;47266;-63
2021/11/17 05:35:42;;;;;;;;;30.80;29.80;;;;;12.46;69.20;101660.16;2090894;28;48514;-63
2021/11/17 05:36:58;;;;;;;;;34.80;29.60;;;;;12.45;69.14;101661.94;2091701;28;45313;-63
2021/11/17 05:38:23;;;;;;;;;28.40;26.20;;;;;12.45;69.08;101666.34;2099133;28;48340;-63
2021/11/17 05:39:45;;;;;;;;;30.60;28.80;;;;;12.46;69.07;101657.50;2096627;28;46799;-63
2021/11/17 05:41:24;;;;;;;;;31.80;30.40;;;;;12.46;69.00;101658.38;2099706;28;46956;-63
2021/11/17 05:42:55;;;;;;;;;26.80;25.20;;;;;12.46;69.03;101655.72;2074473;28;46567;-63
2021/11/17 05:44:18;;;;;;;;;34.20;29.60;;;;;12.46;69.20;101657.50;2074651;28;47378;-63
2021/11/17 05:45:30;;;;;;;;;30.60;28.40;;;;;12.46;69.03;101663.72;2091014;28;48291;-63
2021/11/17 05:46:43;;;;;;;;;29.40;29.00;;;;;12.47;69.13;101661.91;2092029;27;47262;-63
2021/11/17 05:48:18;;;;;;;;;30.40;27.40;;;;;12.46;69.00;101653.06;2092299;28;45109;-63
2021/11/17 05:49:43;;;;;;;;;28.40;25.00;;;;;12.47;69.24;101660.13;2068201;28;47391;-63
2021/11/17 05:50:53;;;;;;;;;30.00;28.40;;;;;12.48;69.10;101655.69;2091322;28;47479;-63
2021/11/17 05:52:21;;;;;;;;;26.80;26.00;;;;;12.48;69.27;101655.69;2091708;28;46590;-63
2021/11/17 05:53:42;;;;;;;;;24.60;24.60;;;;;12.48;68.99;101659.22;2092027;28;47360;-63
2021/11/17 05:54:45;;;;;;;;;27.60;26.20;;;;;12.49;68.92;101657.44;2091850;28;47194;-63
2021/11/17 05:56:05;;;;;;;;;32.60;28.80;;;;;12.46;69.27;101653.06;2092510;28;47777;-63
2021/11/17 05:57:11;;;;;;;;;33.80;27.40;;;;;12.47;69.03;101653.94;2083775;28;47512;-63
2021/11/17 05:58:18;;;;;;;;;28.20;27.00;;;;;12.45;69.03;101651.31;2088512;28;46520;-63
2021/11/17 05:59:46;;;;;;;;;34.60;30.00;;;;;12.46;69.22;101646.84;2091809;27;47468;-63
2021/11/17 06:00:46;;;;;;;;;29.80;28.00;;;;;12.46;69.28;101647.72;2084872;28;47223;-63
2021/11/17 06:02:02;;;;;;;;;32.50;30.50;;;;;12.47;69.17;101648.63;2097677;28;48305;-63
2021/11/17 06:03:06;;;;;;;;;30.80;29.60;;;;;12.48;69.23;101650.38;2090633;28;46777;-63
2021/11/17 06:04:07;;;;;;;;;39.40;34.80;;;;;12.48;69.25;101637.06;2091856;27;47458;-63
2021/11/17 06:05:07;;;;;;;;;35.00;32.25;;;;;12.48;69.15;101640.59;2091494;28;47183;-63
2021/11/17 06:06:07;;;;;;;;;33.50;31.25;;;;;12.49;69.17;101641.47;2091417;28;47144;-64
2021/11/17 06:07:08;;;;;;;;;37.00;33.00;;;;;12.50;69.28;101648.56;2088715;28;46313;-63
2021/11/17 06:08:08;;;;;;;;;34.50;30.25;;;;;12.50;69.33;101638.78;2092063;28;47379;-63
2021/11/17 06:09:09;;;;;;;;;28.75;27.75;;;;;12.51;69.21;101642.31;2091919;28;47172;-63
2021/11/17 06:10:19;;;;;;;;;28.75;27.00;;;;;12.51;69.13;101648.53;2099846;28;47292;-63
2021/11/17 06:11:34;;;;;;;;;32.20;29.40;;;;;12.52;69.26;101644.97;2092851;28;48789;-63
2021/11/17 06:12:35;;;;;;;;;31.60;30.20;;;;;12.52;69.14;101641.41;2084719;27;47538;-63
2021/11/17 06:13:35;;;;;;;;;26.20;25.40;;;;;12.53;69.19;101637.84;2088959;28;47682;-64
2021/11/17 06:14:39;;;;;;;;;33.75;30.75;;;;;12.54;69.23;101645.81;2092006;27;47740;-64
2021/11/17 06:15:43;;;;;;;;;38.00;32.80;;;;;12.54;69.18;101636.94;2092009;28;45366;-64
2021/11/17 06:16:49;;;;;;;;;32.80;29.40;;;;;12.55;69.48;101644.03;2091941;28;45373;-64
2021/11/17 06:17:52;;;;;;;;;32.60;31.80;;;;;12.55;69.22;101639.59;2091767;28;47142;-63
2021/11/17 06:18:53;;;;;;;;;32.80;31.40;;;;;12.56;69.24;101643.13;2086278;28;47346;-63
2021/11/17 06:19:56;;;;;;;;;35.00;31.25;;;;;12.56;69.13;101646.66;2087869;28;47231;-64
2021/11/17 06:20:58;;;;;;;;;31.80;29.00;;;;;12.57;69.21;101643.09;2091868;28;47343;-63
2021/11/17 06:22:00;;;;;;;;;34.60;30.80;;;;;12.57;69.04;101640.44;2091139;27;47514;-64
2021/11/17 06:23:04;;;;;;;;;30.60;29.00;;;;;12.58;69.05;101633.34;2094211;28;48360;-63
2021/11/17 06:24:08;;;;;;;;;35.00;31.40;;;;;12.58;69.14;101633.34;2091902;28;47144;-63
2021/11/17 06:25:10;;;;;;;;;31.00;29.20;;;;;12.58;69.11;101633.34;2090895;28;47622;-63
2021/11/17 06:26:12;;;;;;;;;33.80;30.80;;;;;12.58;68.85;101634.25;2090717;28;46468;-63
2021/11/17 06:27:15;;;;;;;;;29.40;28.40;;;;;12.59;68.97;101640.44;2090774;28;47325;-63
2021/11/17 06:28:23;;;;;;;;;33.20;31.60;;;;;12.60;69.24;101639.53;2086396;28;47273;-62
2021/11/17 06:29:29;;;;;;;;;34.00;29.80;;;;;12.60;68.99;101642.19;2095164;28;47481;-63
2021/11/17 06:30:32;;;;;;;;;35.40;30.80;;;;;12.60;69.07;101642.19;2084318;28;47529;-63
2021/11/17 06:31:36;;;;;;;;;27.20;24.00;;;;;12.60;69.03;101636.88;2084833;28;48384;-63
2021/11/17 06:32:36;;;;;;;;;36.60;33.20;;;;;12.61;68.84;101638.63;2085963;28;45344;-63
2021/11/17 06:33:37;;;;;;;;;34.50;32.00;;;;;12.61;69.09;101641.28;2086034;28;46846;-64
2021/11/17 06:34:42;;;;;;;;;38.50;31.00;;;;;12.61;69.05;101636.84;2091359;28;48363;-63
2021/11/17 06:35:43;;;;;;;;;36.40;30.60;;;;;12.61;69.09;101641.28;2091327;28;48419;-63
2021/11/17 06:36:43;;;;;;;;;38.00;32.00;;;;;12.60;68.98;101637.75;2091945;28;47670;-64
2021/11/17 06:37:44;;;;;;;;;36.25;32.00;;;;;12.61;69.10;101639.50;2099561;28;47116;-63
2021/11/17 06:38:46;;;;;;;;;32.40;31.00;;;;;12.62;69.13;101645.72;2091412;28;46573;-63
2021/11/17 06:39:49;;;;;;;;;38.20;34.00;;;;;12.62;69.19;101646.59;2091940;28;47378;-64
2021/11/17 06:40:51;;;;;;;;;35.60;31.80;;;;;12.62;69.04;101643.94;2090925;28;46913;-63
2021/11/17 06:41:53;;;;;;;;;32.00;30.40;;;;;12.61;68.97;101650.16;2091223;28;48162;-63
2021/11/17 06:42:56;;;;;;;;;34.40;31.60;;;;;12.61;69.05;101644.84;2091708;27;46967;-64
2021/11/17 06:43:56;;;;;;;;;31.80;31.00;;;;;12.61;69.04;101646.63;2089505;27;47216;-63
2021/11/17 06:44:58;;;;;;;;;35.75;32.50;;;;;12.61;69.07;101654.59;2082657;28;47478;-64
2021/11/17 06:45:59;;;;;;;;;33.60;31.60;;;;;12.61;68.93;101655.47;2084205;28;46346;-62
2021/11/17 06:47:00;;;;;;;;;36.40;31.80;;;;;12.61;69.06;101658.16;2089547;28;46464;-63
2021/11/17 06:48:00;;;;;;;;;35.50;31.00;;;;;12.61;68.96;101657.28;2091673;27;46993;-62
2021/11/17 06:49:02;;;;;;;;;38.25;34.00;;;;;12.61;69.08;101662.59;2085164;28;48409;-63
2021/11/17 06:50:04;;;;;;;;;32.60;30.20;;;;;12.62;69.02;101661.69;2088692;28;45456;-62
2021/11/17 06:51:05;;;;;;;;;33.20;30.80;;;;;12.59;69.08;101667.94;2084074;28;46518;-62
2021/11/17 06:52:07;;;;;;;;;34.75;33.00;;;;;12.61;69.08;101665.25;2092358;28;48103;-64
2021/11/17 06:53:08;;;;;;;;;31.80;26.60;;;;;12.61;69.03;101665.25;2099366;28;45428;-64
2021/11/17 06:54:09;;;;;;;;;37.40;32.20;;;;;12.60;68.96;101664.38;2099533;27;46650;-65
2021/11/17 06:55:10;;;;;;;;;34.00;30.75;;;;;12.61;69.15;101675.91;2088335;28;47312;-64
2021/11/17 06:56:10;;;;;;;;;27.80;26.60;;;;;12.60;69.10;101671.50;2085791;28;47621;-63
2021/11/17 06:57:11;;;;;;;;;27.75;27.00;;;;;12.59;69.00;101673.28;2091545;27;47071;-62
2021/11/17 06:58:12;;;;;;;;;29.80;29.60;;;;;12.60;69.37;101672.38;2091768;28;48368;-62
2021/11/17 06:59:13;;;;;;;;;32.40;30.00;;;;;12.62;69.16;101680.34;2099179;27;48244;-62
2021/11/17 07:00:21;;;;;;;;;33.00;28.00;;;;;12.62;69.17;101681.22;2099505;27;48149;-61
2021/11/17 07:01:21;;;;;;;;;32.20;29.60;;;;;12.63;69.17;101674.97;2090722;28;47555;-65
2021/11/17 07:02:22;;;;;;;;;36.75;30.75;;;;;12.63;69.07;101687.41;2078843;28;47487;-64
2021/11/17 07:03:24;;;;;;;;;35.25;32.75;;;;;12.63;68.82;101687.41;2087745;28;45396;-62
2021/11/17 07:04:25;;;;;;;;;33.60;32.00;;;;;12.63;69.12;101693.63;2091631;28;45388;-62
2021/11/17 07:05:26;;;;;;;;;36.00;30.75;;;;;12.63;69.07;101690.97;2091658;28;47292;-62
2021/11/17 07:06:27;;;;;;;;;31.00;29.60;;;;;12.64;68.77;101697.16;2091581;28;47795;-62
2021/11/17 07:07:27;;;;;;;;;40.00;32.60;;;;;12.64;69.15;101699.81;2090727;28;46318;-62
2021/11/17 07:08:28;;;;;;;;;30.25;28.00;;;;;12.64;68.92;101705.16;2090834;28;46447;-63
2021/11/17 07:09:29;;;;;;;;;28.50;26.25;;;;;12.65;69.14;101713.13;2090867;28;46919;-63
2021/11/17 07:10:32;;;;;;;;;34.50;30.00;;;;;12.65;69.27;101718.44;2090869;28;46161;-62
2021/11/17 07:11:37;;;;;;;;;35.00;30.20;;;;;12.66;69.07;101708.66;2091295;28;45470;-63
2021/11/17 07:12:39;;;;;;;;;32.80;30.20;;;;;12.66;69.14;101717.53;2091456;27;47497;-62
2021/11/17 07:13:39;;;;;;;;;33.60;31.60;;;;;12.67;68.99;101713.09;2091723;28;47323;-62
2021/11/17 07:14:41;;;;;;;;;30.00;29.00;;;;;12.66;69.03;101717.53;2091317;28;47261;-62
2021/11/17 07:15:42;;;;;;;;;31.80;30.60;;;;;12.66;68.88;101714.00;2090893;28;46956;-61
2021/11/17 07:16:43;;;;;;;;;28.60;27.40;;;;;12.67;69.07;101726.41;2090772;28;47317;-63
2021/11/17 07:17:43;;;;;;;;;37.00;33.00;;;;;12.66;69.08;101725.53;2091299;28;48420;-62
2021/11/17 07:18:44;;;;;;;;;38.50;32.00;;;;;12.67;69.02;101723.75;2090141;28;47038;-62
2021/11/17 07:19:45;;;;;;;;;28.25;27.00;;;;;12.68;69.06;101728.16;2098752;28;47221;-62
2021/11/17 07:20:46;;;;;;;;;38.75;31.25;;;;;12.67;69.12;101729.06;2094161;28;47120;-62
2021/11/17 07:21:46;;;;;;;;;31.80;28.40;;;;;12.67;69.04;101729.94;2085300;28;46312;-62
2021/11/17 07:22:47;;;;;;;;;27.75;25.75;;;;;12.67;69.02;101735.28;2090664;28;45343;-62
2021/11/17 07:23:47;;;;;;;;;27.75;25.25;;;;;12.67;69.32;101735.28;2082429;28;47179;-62
2021/11/17 07:24:48;;;;;;;;;30.25;28.00;;;;;12.68;69.13;101738.81;2090618;28;46684;-62
2021/11/17 07:25:48;;;;;;;;;30.00;25.50;;;;;12.68;69.09;101736.16;2090869;27;47023;-62
2021/11/17 07:26:49;;;;;;;;;23.75;23.75;;;;;12.69;68.99;101743.22;2090424;28;47339;-62
2021/11/17 07:27:51;;;;;;;;;27.25;25.25;;;;;12.69;68.84;101740.56;2090974;28;46341;-62
2021/11/17 07:28:51;;;;;;;;;31.40;28.20;;;;;12.70;69.27;101744.13;2091256;28;47193;-62
2021/11/17 07:29:55;;;;;;;;;33.50;30.75;;;;;12.71;68.80;101743.25;2089463;28;46296;-62
2021/11/17 07:30:56;;;;;;;;;19.60;17.80;;;;;12.71;69.08;101743.25;2087310;28;48256;-62
2021/11/17 07:31:57;;;;;;;;;31.60;31.00;;;;;12.70;69.21;101745.00;2087925;28;46922;-62
2021/11/17 07:32:57;;;;;;;;;31.80;26.00;;;;;12.70;69.22;101742.34;2090879;27;47989;-62
2021/11/17 07:33:58;;;;;;;;;28.25;28.25;;;;;12.70;69.33;101747.66;2091223;28;48384;-62
2021/11/17 07:34:58;;;;;;;;;31.75;25.50;;;;;12.71;69.04;101745.91;2090164;28;47994;-62
2021/11/17 07:35:59;;;;;;;;;35.25;31.50;;;;;12.71;69.37;101748.56;2083719;28;48155;-62
2021/11/17 07:36:59;;;;;;;;;26.50;23.25;;;;;12.71;69.38;101745.91;2086233;28;47171;-62
2021/11/17 07:38:01;;;;;;;;;33.50;28.25;;;;;12.72;69.41;101748.53;2084432;28;47376;-62
2021/11/17 07:39:03;;;;;;;;;31.60;27.00;;;;;12.74;69.37;101751.19;2090852;28;47409;-62
2021/11/17 07:40:06;;;;;;;;;29.20;24.20;;;;;12.73;69.25;101752.97;2091321;28;48078;-62
2021/11/17 07:41:08;;;;;;;;;28.00;25.80;;;;;12.75;69.12;101758.28;2091128;28;45563;-62
2021/11/17 07:42:09;;;;;;;;;28.60;25.80;;;;;12.75;69.19;101760.94;2091399;28;47310;-62
2021/11/17 07:43:10;;;;;;;;;26.00;24.25;;;;;12.76;69.29;101762.69;2091103;28;48246;-62
2021/11/17 07:44:14;;;;;;;;;30.00;26.60;;;;;12.76;69.29;101768.00;2086975;28;48202;-62
2021/11/17 07:45:16;;;;;;;;;26.20;24.00;;;;;12.77;69.34;101770.66;2090535;28;47152;-62
2021/11/17 07:46:16;;;;;;;;;33.40;27.60;;;;;12.76;69.37;101768.00;2091343;28;47665;-62
2021/11/17 07:47:17;;;;;;;;;25.75;24.75;;;;;12.77;69.32;101769.78;2091167;28;45519;-62
2021/11/17 07:48:21;;;;;;;;;26.75;25.25;;;;;12.78;69.40;101771.53;2091278;27;46371;-62
2021/11/17 07:49:22;;;;;;;;;33.60;30.80;;;;;12.78;69.55;101766.22;2091369;28;45388;-62
2021/11/17 07:50:23;;;;;;;;;31.60;26.40;;;;;12.78;69.46;101766.22;2091464;27;47408;-62
2021/11/17 07:51:23;;;;;;;;;24.00;21.25;;;;;12.79;69.57;101758.19;2085910;28;48079;-62